Time;durP1;ratioP1;P1;durP2;ratioP2;P2;SDS_P1;SDS_P2;PMS_P1;PMS_P2;Temp;Humidity;BMP_temperature;BMP_pressure;BME280_temperature;BME280_humidity;BME280_pressure;Samples;Min_cycle;Max_cycle;Signal;HPM_P1;HPM_P2
2024/02/28 00:04:50;;;;;;;34.13;21.58;;;;;;;10.25;54.76;94683.03;6305692;22;20015;-86
2024/02/28 00:07:17;;;;;;;32.97;21.60;;;;;;;10.05;55.62;94690.66;6279812;22;20015;-87
2024/02/28 00:09:42;;;;;;;30.35;20.75;;;;;;;10.28;54.67;94665.25;6279582;22;20061;-87
2024/02/28 00:12:08;;;;;;;30.77;21.30;;;;;;;10.35;54.56;94681.72;6254289;22;20007;-87
2024/02/28 00:14:33;;;;;;;33.25;22.13;;;;;;;10.43;54.08;94672.16;6253558;22;20011;-87
2024/02/28 00:45:17;;;;;;;30.20;21.23;;;;;;;10.47;54.45;94694.19;6305369;22;20027;-87
2024/02/28 00:47:45;;;;;;;34.53;21.83;;;;;;;10.55;54.64;94709.66;6279226;22;20033;-86
2024/02/28 00:50:11;;;;;;;30.52;20.83;;;;;;;10.45;54.65;94698.78;6253812;22;20072;-87
2024/02/28 00:52:37;;;;;;;31.67;21.65;;;;;;;10.54;54.36;94705.44;6279438;22;20007;-87
2024/02/28 00:55:04;;;;;;;30.45;21.67;;;;;;;10.56;54.18;94704.25;6279237;22;20014;-86
2024/02/28 04:21:20;;;;;;;40.22;25.65;;;;;;;9.15;58.89;94792.13;6281087;22;20032;-87
2024/02/28 04:23:45;;;;;;;40.95;26.95;;;;;;;9.33;58.17;94802.16;6214531;23;20043;-86
2024/02/28 04:26:11;;;;;;;40.03;26.08;;;;;;;9.32;58.60;94800.53;6188449;23;20017;-87
2024/02/28 04:28:36;;;;;;;39.63;26.40;;;;;;;9.08;59.14;94795.59;6213278;23;20023;-87
2024/02/28 04:31:02;;;;;;;39.85;26.40;;;;;;;9.28;58.93;94796.69;6163855;23;20016;-87
2024/02/28 04:33:28;;;;;;;39.80;26.65;;;;;;;9.69;57.64;94795.38;6212689;23;20134;-87
2024/02/28 05:40:00;;;;;;;45.67;26.63;;;;;;;9.88;59.72;94871.91;6282148;22;20062;-87
2024/02/28 06:03:19;;;;;;;42.55;25.60;;;;;;;9.65;60.30;94904.00;6270046;22;20085;-88
2024/02/28 06:05:48;;;;;;;48.60;26.70;;;;;;;9.62;60.66;94896.59;6192362;23;20024;-88
2024/02/28 06:08:14;;;;;;;44.58;25.20;;;;;;;9.37;61.37;94907.22;6192545;23;20019;-87
2024/02/28 06:10:42;;;;;;;45.67;25.52;;;;;;;9.50;60.69;94908.38;6192801;23;20012;-87
2024/02/28 06:13:07;;;;;;;45.42;26.55;;;;;;;8.65;63.42;94906.88;6168927;23;20012;-87
2024/02/28 06:46:38;;;;;;;55.13;28.40;;;;;;;8.20;65.37;94972.19;6248322;22;20034;-87
2024/02/28 06:49:04;;;;;;;49.95;28.50;;;;;;;8.43;64.90;94975.84;6222282;22;20042;-88
2024/02/28 06:51:29;;;;;;;50.40;28.58;;;;;;;8.08;66.04;94970.94;6247781;22;20000;-87
2024/02/28 07:06:54;;;;;;;45.30;25.85;;;;;;;8.10;65.17;94987.13;6219336;23;20024;-86
2024/02/28 07:09:25;;;;;;;45.35;24.20;;;;;;;8.22;65.14;94980.63;6167529;23;20004;-86
2024/02/28 07:11:51;;;;;;;;;;;;;;;7.18;68.62;94992.66;6194034;23;20088;-87
2024/02/28 07:14:16;;;;;;;43.83;24.90;;;;;;;7.19;68.97;94991.66;6192277;23;19939;-87
2024/02/28 07:37:03;;;;;;;44.75;25.10;;;;;;;8.72;63.51;94981.19;6305454;22;20041;-86
2024/02/28 07:39:31;;;;;;;41.15;24.85;;;;;;;8.47;64.26;94998.66;6278593;22;20011;-87
2024/02/28 07:41:57;;;;;;;44.60;24.45;;;;;;;8.48;63.98;94999.47;6278173;22;20063;-87
2024/02/28 07:44:22;;;;;;;42.85;24.60;;;;;;;8.55;63.30;94990.06;6254715;22;20100;-88
2024/02/28 07:46:50;;;;;;;42.13;24.48;;;;;;;8.74;62.80;94986.22;6280068;22;20030;-88
2024/02/28 10:00:55;;;;;;;33.33;18.90;;;;;;;9.59;59.75;95107.25;6243163;23;20024;-86
2024/02/28 10:03:25;;;;;;;36.08;21.17;;;;;;;9.37;59.98;95107.09;6213950;23;20031;-86
2024/02/28 10:05:50;;;;;;;35.40;21.27;;;;;;;9.06;61.00;95098.50;6193271;23;20016;-85
2024/02/28 10:08:16;;;;;;;32.78;19.83;;;;;;;9.32;60.63;95111.97;6217927;23;20090;-86
2024/02/28 10:16:36;;;;;;;37.35;21.40;;;;;;;8.50;63.43;95104.59;6286506;22;20027;-87
2024/02/28 10:19:05;;;;;;;36.78;20.90;;;;;;;9.53;59.59;95108.75;6222418;23;20016;-86
2024/02/28 10:21:32;;;;;;;36.53;20.33;;;;;;;9.50;59.82;95106.53;6192900;23;20020;-87
2024/02/28 10:23:58;;;;;;;34.80;20.98;;;;;;;8.52;62.77;95104.44;6193423;23;20008;-87
2024/02/28 10:26:24;;;;;;;34.88;21.08;;;;;;;9.41;60.75;95107.56;6192599;23;20008;-87
2024/02/28 18:36:24;;;;;;;34.85;18.85;;;;;;;10.25;58.02;95180.28;6261122;22;20078;-87
2024/02/28 20:17:17;;;;;;;33.70;18.83;;;;;;;10.64;56.60;95204.47;6277014;22;20023;-88
2024/02/28 22:31:24;;;;;;;41.50;22.58;;;;;;;10.11;58.44;95095.28;6267061;22;20035;-87
2024/02/28 23:06:42;;;;;;;37.40;19.88;;;;;;;10.14;57.83;95095.72;6303571;22;20031;-86
2024/02/28 23:09:08;;;;;;;38.22;20.52;;;;;;;10.14;57.64;95087.13;6278166;22;20011;-87
